Mooresville, Indiana
Current Conditions -  °F | °C
As of 8:54 AM on Tuesday 21 Oct 2014 (Local Time) from KIND Reporting Station
Overcast Overcast  
Wind Chill: 44°   Ceiling: 5000
Heat Index: 48°   Visibility: 10mi
Dew Point: 44°   Wind: 8mph
Humidity: 86%   Direction: 310°NW
Pressure: 30.06"   Gusts: NA
Location:  39.61°N, 86.37°W
Report Text: KIND 211254Z 31007KT 10SM FEW020 OVC050 09/07 A3006 RMK AO2 SLP179 T00890067
Loading
Personal Weather Stations






























Interactive Weather Map
Tropical Storm Tracking
New forecast layout! Learn more

10-Day Weather Forecast

Advertisements
Track Severe Weather on mobile